Brewster Knott — WDG6998 — position and weather

sailwx.info

Track history (hours):
 
Tides and Currents Weather Stations Pressure Air Temp Water Temp Dewpoint Dewpoint Depression Visibility Wind Speed Wind Dir Waves Ship Positions

Brewster Knott

Owner: Kirby Inland Marine, LP, Houston, TX. More information available from US FCC via Universal Licensing System and Coast Guard Vessel Documentation Center.

Last reported at 2018-May-24 21:00 UTC. Time now 2018-May-24 21:23 UTC.
Position N 29°48' W 092°06'.

Length 210 m; draft 3 m.

Type: . MMSI: 367562820.

Date/timePositionNaut miles runAvg speedWind from/ knotsBaromVisibWave heightAir tempDewpointWater temp
2018-May-24 21:00N 29°48' W 092°06'3 5.7
2018-May-24 20:30N 29°49' W 092°03'3 5.9
2018-May-24 20:00N 29°50' W 092°00'3 6.1
2018-May-24 19:30N 29°51' W 091°57'56 4.8
2018-May-24 07:56N 29°34' W 090°56'3 6.5
2018-May-24 07:29N 29°32' W 090°53'3 6.3
2018-May-24 07:00N 29°32' W 090°49'3 6.2
2018-May-24 06:30N 29°32' W 090°46'2 3.9
2018-May-24 06:00N 29°34' W 090°45'2 3.7
2018-May-24 05:30N 29°35' W 090°43'2 3.8
2018-May-24 05:00N 29°37' W 090°42'1 2.2
2018-May-24 04:30N 29°36' W 090°41'2 4.7
2018-May-24 04:00N 29°35' W 090°39'2 4.8
2018-May-24 03:30N 29°35' W 090°36'3 5.5
2018-May-24 03:00N 29°34' W 090°33'3 5.7
2018-May-24 02:30N 29°34' W 090°30'3 5.9
2018-May-24 02:00N 29°33' W 090°26'3 5.1
2018-May-24 01:30N 29°33' W 090°24'2 3.8
2018-May-24 00:54N 29°35' W 090°22'  
2018-May-20 05:39N 29°33' W 090°25'0 2.4
2018-May-20 05:29N 29°33' W 090°25'1 1.3
2018-May-20 04:58N 29°33' W 090°26'3 4.1
2018-May-20 04:15N 29°34' W 090°29'2 6.6
2018-May-20 04:00N 29°34' W 090°31'3 6.4
2018-May-20 03:30N 29°34' W 090°35'2 4.9
2018-May-20 03:00N 29°35' W 090°37'3 5.2
2018-May-20 02:30N 29°36' W 090°40'2 4.5
2018-May-20 02:00N 29°36' W 090°43'3 5.3
2018-May-20 01:30N 29°34' W 090°44'3 6.8
2018-May-20 01:00N 29°32' W 090°47'120 5.1
2018-May-19 01:19N 29°56' W 093°02'2 6.7
2018-May-19 00:59N 29°56' W 093°05'3 6.6
2018-May-19 00:30N 29°56' W 093°09'3 6.1
2018-May-19 00:00N 29°58' W 093°11'3 6.5
2018-May-18 23:30N 30°00' W 093°14'2 3.8
2018-May-18 23:00N 30°02' W 093°15'2 4.1
2018-May-18 22:30N 30°04' W 093°16'2 4.2
2018-May-18 22:00N 30°05' W 093°18'1 1.1
2018-May-18 21:31N 30°06' W 093°18'0 0.8
2018-May-18 21:00N 30°06' W 093°18'2 4.6
2018-May-18 20:30N 30°05' W 093°20'3 5.3
2018-May-18 20:00N 30°04' W 093°23'4 7.4
2018-May-18 19:30N 30°04' W 093°28'4 7.3
2018-May-18 19:00N 30°04' W 093°32'4 7.3
2018-May-18 18:30N 30°04' W 093°36'4 8.2
2018-May-18 18:00N 30°04' W 093°41'4 7.2
2018-May-18 17:30N 30°02' W 093°44'4 7.9
2018-May-18 17:00N 29°59' W 093°48'4 7.7
2018-May-18 16:30N 29°57' W 093°52'510.6
2018-May-18 16:00N 29°53' W 093°55'4 8.6
2018-May-18 15:30N 29°49' W 093°58'1 1.6
2018-May-18 15:00N 29°49' W 093°59'0 0.0
2018-May-18 14:30N 29°49' W 093°59'0 0.0
2018-May-18 14:00N 29°49' W 093°59'0 0.0
2018-May-18 13:30N 29°49' W 093°59'0 0.0
2018-May-18 13:00N 29°49' W 093°59'0 0.1
2018-May-18 12:30N 29°49' W 093°59'2 3.4
2018-May-18 12:00N 29°48' W 094°00'3 5.4
2018-May-18 11:30N 29°46' W 094°03'3 6.2
2018-May-18 11:00N 29°44' W 094°05'3 6.9
2018-May-18 10:30N 29°42' W 094°08'3 6.2
2018-May-18 10:00N 29°41' W 094°12'3 6.2
2018-May-18 09:30N 29°40' W 094°15'3 6.9
2018-May-18 09:00N 29°38' W 094°18'3 6.6
2018-May-18 08:30N 29°36' W 094°22'3 5.8
2018-May-18 08:00N 29°35' W 094°25'1 2.8
2018-May-18 07:30N 29°34' W 094°25'3 6.0
2018-May-18 07:00N 29°33' W 094°28'3 6.2
2018-May-18 06:30N 29°31' W 094°31'3 6.2
2018-May-18 06:00N 29°30' W 094°34'3 6.5
2018-May-18 05:30N 29°28' W 094°38'3 5.9
2018-May-18 05:00N 29°27' W 094°41'3 6.0
2018-May-18 04:30N 29°25' W 094°44'2 5.0
2018-May-18 04:00N 29°24' W 094°46'3 5.3
2018-May-18 03:30N 29°23' W 094°49'5 9.9
2018-May-18 03:00N 29°28' W 094°51'5 9.6
2018-May-18 02:30N 29°32' W 094°54'5 9.0
2018-May-18 02:00N 29°36' W 094°57'4 8.9
2018-May-18 01:30N 29°40' W 094°58'4 7.2
2018-May-18 01:00N 29°42' W 095°01'3 5.8
2018-May-18 00:29N 29°45' W 095°04'2 4.4
2018-May-18 00:01N 29°45' W 095°06'2 0.2
2018-May-17 13:40N 29°44' W 095°08'0 0.0
2018-May-17 13:30N 29°44' W 095°08'0 0.0
2018-May-17 12:56N 29°44' W 095°08'0 0.0
2018-May-17 11:40N 29°44' W 095°08'0 0.0
2018-May-17 11:30N 29°44' W 095°08'0 0.0
2018-May-17 10:55N 29°44' W 095°08'0 0.0
2018-May-17 10:21N 29°44' W 095°08'0 0.1
2018-May-17 10:01N 29°44' W 095°08'0 0.1
2018-May-17 09:26N 29°44' W 095°08'0 0.0
2018-May-17 09:00N 29°44' W 095°08'0 0.0
2018-May-17 08:29N 29°44' W 095°08'0 0.0
2018-May-17 08:00N 29°44' W 095°08'0 0.0
2018-May-17 07:27N 29°44' W 095°08'0 0.0
2018-May-17 06:59N 29°44' W 095°08'0 0.0
2018-May-17 06:15N 29°44' W 095°08'0 0.0
2018-May-17 05:57N 29°44' W 095°08'0 0.1
2018-May-17 05:30N 29°44' W 095°08'0 0.1
2018-May-17 04:35N 29°44' W 095°08'0 0.0
2018-May-17 04:22N 29°44' W 095°08'0 0.0
2018-May-17 04:00N 29°44' W 095°08'0 0.0
2018-May-17 03:31N 29°44' W 095°08'0 0.1
2018-May-17 03:00N 29°44' W 095°08'0 0.0
2018-May-17 02:30N 29°44' W 095°08'0 0.0
2018-May-17 02:00N 29°44' W 095°08'0 0.1
2018-May-17 00:22N 29°44' W 095°08'2 3.8
2018-May-16 23:56N 29°45' W 095°10'1 1.4
2018-May-16 23:27N 29°45' W 095°10'0 0.1
2018-May-16 23:00N 29°45' W 095°10'0 0.5
2018-May-16 22:30N 29°45' W 095°10'0 0.0
2018-May-16 22:00N 29°45' W 095°10'0 0.0
2018-May-16 21:28N 29°45' W 095°10'0 0.0
2018-May-16 21:00N 29°45' W 095°10'0 0.0
2018-May-16 20:30N 29°45' W 095°10'0 0.0
2018-May-16 20:00N 29°45' W 095°10'0 0.0
2018-May-16 19:30N 29°45' W 095°10'0 0.0
2018-May-16 19:01N 29°45' W 095°10'0 0.0
2018-May-16 18:31N 29°45' W 095°10'0 0.0
2018-May-16 18:00N 29°45' W 095°10'0 0.0
2018-May-16 17:30N 29°45' W 095°10'0 0.0
2018-May-16 17:00N 29°45' W 095°10'0 0.0
2018-May-16 16:31N 29°45' W 095°10'0 0.0
2018-May-16 16:01N 29°45' W 095°10'0 0.0
2018-May-16 15:28N 29°45' W 095°10'0 0.0
2018-May-16 15:00N 29°45' W 095°10'0 0.6
2018-May-16 14:30N 29°45' W 095°10'0 0.6
2018-May-16 13:59N 29°45' W 095°10'0 0.0
2018-May-16 13:30N 29°45' W 095°10'0 0.0
2018-May-16 13:00N 29°45' W 095°10'0 0.0
2018-May-16 12:31N 29°45' W 095°10'0 0.0
2018-May-16 12:00N 29°45' W 095°10'0 0.0
2018-May-16 11:30N 29°45' W 095°10'0 0.0
2018-May-16 11:00N 29°45' W 095°10'0 0.0
2018-May-16 10:31N 29°45' W 095°10'0 0.0
2018-May-16 10:00N 29°45' W 095°10'0 0.0
2018-May-16 09:31N 29°45' W 095°10'0 0.0
2018-May-16 09:01N 29°45' W 095°10'0 0.0
2018-May-16 08:30N 29°45' W 095°10'0 0.0
2018-May-16 08:00N 29°45' W 095°10'0 0.0
2018-May-16 07:30N 29°45' W 095°10'0 0.0
2018-May-16 07:00N 29°45' W 095°10'0 0.0
2018-May-16 06:30N 29°45' W 095°10'0 0.0
2018-May-16 06:01N 29°45' W 095°10'0 0.0
2018-May-16 05:31N 29°45' W 095°10'0 0.0
2018-May-16 05:00N 29°45' W 095°10'1 1.1
2018-May-16 04:30N 29°45' W 095°10'0 0.4
2018-May-16 04:00N 29°45' W 095°10'0 0.0
2018-May-16 03:31N 29°45' W 095°10'0 0.0
2018-May-16 03:01N 29°45' W 095°10'0 0.0
2018-May-16 02:30N 29°45' W 095°10'0 0.0
2018-May-16 02:00N 29°45' W 095°10'1 1.4
2018-May-16 01:30N 29°45' W 095°10'0 0.3
2018-May-16 01:00N 29°45' W 095°10'3 5.1
2018-May-16 00:25N 29°44' W 095°07'2 5.0
2018-May-15 23:57N 29°46' W 095°05'4 6.4
2018-May-15 23:21N 29°44' W 095°01'2 6.9
2018-May-15 23:01N 29°42' W 094°60'4 8.5
2018-May-15 22:31N 29°38' W 094°58'4 8.1
2018-May-15 22:00N 29°34' W 094°55'4 8.9
2018-May-15 21:30N 29°31' W 094°53'9 8.7
2018-May-15 20:26N 29°22' W 094°48'3 4.9
2018-May-15 19:47N 29°24' W 094°45'1 4.8
2018-May-15 19:30N 29°25' W 094°44'3 5.9
2018-May-15 18:59N 29°27' W 094°41'3 5.7
2018-May-15 18:29N 29°28' W 094°38'3 6.0
2018-May-15 18:00N 29°29' W 094°35'3 5.9
2018-May-15 17:30N 29°31' W 094°32'3 6.0
2018-May-15 17:01N 29°32' W 094°29'3 5.6
2018-May-15 16:30N 29°34' W 094°26'2 4.8
2018-May-15 15:59N 29°36' W 094°25'2 4.0
2018-May-15 15:29N 29°36' W 094°22'3 5.7
2018-May-15 15:01N 29°37' W 094°20'3 5.8
2018-May-15 14:29N 29°39' W 094°16'3 5.7
2018-May-15 14:01N 29°40' W 094°14'3 5.3
2018-May-15 13:31N 29°41' W 094°11'2 3.6
2018-May-15 13:01N 29°42' W 094°09'3 6.1
2018-May-15 12:30N 29°44' W 094°06'3 6.4
2018-May-15 12:00N 29°46' W 094°03'3 6.5
2018-May-15 11:30N 29°48' W 094°00'3 5.9
2018-May-15 11:01N 29°49' W 093°58'2 4.5
2018-May-15 10:31N 29°51' W 093°56'4 7.1
2018-May-15 10:01N 29°54' W 093°54'3 7.0
2018-May-15 09:31N 29°57' W 093°52'3 5.9
2018-May-15 09:00N 29°59' W 093°49'4 7.5
2018-May-15 08:31N 30°01' W 093°45'3 6.8
2018-May-15 08:01N 30°03' W 093°43'3 6.0
2018-May-15 07:31N 30°04' W 093°39'3 6.1
2018-May-15 07:01N 30°04' W 093°36'3 5.2
2018-May-15 06:31N 30°04' W 093°33'3 5.1
2018-May-15 06:01N 30°04' W 093°30'3 5.1
2018-May-15 05:30N 30°04' W 093°27'3 5.1
2018-May-15 05:00N 30°04' W 093°24'2 4.4
2018-May-15 04:30N 30°04' W 093°21'1 2.3
2018-May-15 04:01N 30°05' W 093°20'0 0.9
2018-May-15 03:31N 30°05' W 093°20'2 3.9
2018-May-15 03:00N 30°05' W 093°18'1 2.2
2018-May-15 02:31N 30°05' W 093°17'0 0.1
2018-May-15 02:00N 30°05' W 093°17'2 3.2
2018-May-15 01:31N 30°03' W 093°16'2 3.9
2018-May-15 01:01N 30°02' W 093°15'2 3.4
2018-May-15 00:31N 30°00' W 093°14'1 2.0
2018-May-15 00:01N 29°60' W 093°13'2 4.2
2018-May-14 23:31N 29°58' W 093°11'2 4.8
2018-May-14 23:01N 29°56' W 093°10'2 4.8
2018-May-14 22:31N 29°56' W 093°07'2 4.6
2018-May-14 22:01N 29°56' W 093°04'  
Track history (hours):
 
Tides and Currents Weather Stations Pressure Air Temp Water Temp Dewpoint Dewpoint Depression Visibility Wind Speed Wind Dir Waves Ship Positions

Brewster Knott

Owner: Kirby Inland Marine, LP, Houston, TX. More information available from US FCC via Universal Licensing System and Coast Guard Vessel Documentation Center.

Last reported at 2018-May-24 21:00 UTC. Time now 2018-May-24 21:23 UTC.
Position N 29°48' W 092°06'.

Length 210 m; draft 3 m.

Type: . MMSI: 367562820.

Date/timePositionNaut miles runAvg speedWind from/ knotsBaromVisibWave heightAir tempDewpointWater temp
2018-May-24 21:00N 29°48' W 092°06'3 5.7
2018-May-24 20:30N 29°49' W 092°03'3 5.9
2018-May-24 20:00N 29°50' W 092°00'3 6.1
2018-May-24 19:30N 29°51' W 091°57'56 4.8
2018-May-24 07:56N 29°34' W 090°56'3 6.5
2018-May-24 07:29N 29°32' W 090°53'3 6.3
2018-May-24 07:00N 29°32' W 090°49'3 6.2
2018-May-24 06:30N 29°32' W 090°46'2 3.9
2018-May-24 06:00N 29°34' W 090°45'2 3.7
2018-May-24 05:30N 29°35' W 090°43'2 3.8
2018-May-24 05:00N 29°37' W 090°42'1 2.2
2018-May-24 04:30N 29°36' W 090°41'2 4.7
2018-May-24 04:00N 29°35' W 090°39'2 4.8
2018-May-24 03:30N 29°35' W 090°36'3 5.5
2018-May-24 03:00N 29°34' W 090°33'3 5.7
2018-May-24 02:30N 29°34' W 090°30'3 5.9
2018-May-24 02:00N 29°33' W 090°26'3 5.1
2018-May-24 01:30N 29°33' W 090°24'2 3.8
2018-May-24 00:54N 29°35' W 090°22'  
2018-May-20 05:39N 29°33' W 090°25'0 2.4
2018-May-20 05:29N 29°33' W 090°25'1 1.3
2018-May-20 04:58N 29°33' W 090°26'3 4.1
2018-May-20 04:15N 29°34' W 090°29'2 6.6
2018-May-20 04:00N 29°34' W 090°31'3 6.4
2018-May-20 03:30N 29°34' W 090°35'2 4.9
2018-May-20 03:00N 29°35' W 090°37'3 5.2
2018-May-20 02:30N 29°36' W 090°40'2 4.5
2018-May-20 02:00N 29°36' W 090°43'3 5.3
2018-May-20 01:30N 29°34' W 090°44'3 6.8
2018-May-20 01:00N 29°32' W 090°47'120 5.1
2018-May-19 01:19N 29°56' W 093°02'2 6.7
2018-May-19 00:59N 29°56' W 093°05'3 6.6
2018-May-19 00:30N 29°56' W 093°09'3 6.1
2018-May-19 00:00N 29°58' W 093°11'3 6.5
2018-May-18 23:30N 30°00' W 093°14'2 3.8
2018-May-18 23:00N 30°02' W 093°15'2 4.1
2018-May-18 22:30N 30°04' W 093°16'2 4.2
2018-May-18 22:00N 30°05' W 093°18'1 1.1
2018-May-18 21:31N 30°06' W 093°18'0 0.8
2018-May-18 21:00N 30°06' W 093°18'2 4.6
2018-May-18 20:30N 30°05' W 093°20'3 5.3
2018-May-18 20:00N 30°04' W 093°23'4 7.4
2018-May-18 19:30N 30°04' W 093°28'4 7.3
2018-May-18 19:00N 30°04' W 093°32'4 7.3
2018-May-18 18:30N 30°04' W 093°36'4 8.2
2018-May-18 18:00N 30°04' W 093°41'4 7.2
2018-May-18 17:30N 30°02' W 093°44'4 7.9
2018-May-18 17:00N 29°59' W 093°48'4 7.7
2018-May-18 16:30N 29°57' W 093°52'510.6
2018-May-18 16:00N 29°53' W 093°55'4 8.6
2018-May-18 15:30N 29°49' W 093°58'1 1.6
2018-May-18 15:00N 29°49' W 093°59'0 0.0
2018-May-18 14:30N 29°49' W 093°59'0 0.0
2018-May-18 14:00N 29°49' W 093°59'0 0.0
2018-May-18 13:30N 29°49' W 093°59'0 0.0
2018-May-18 13:00N 29°49' W 093°59'0 0.1
2018-May-18 12:30N 29°49' W 093°59'2 3.4
2018-May-18 12:00N 29°48' W 094°00'3 5.4
2018-May-18 11:30N 29°46' W 094°03'3 6.2
2018-May-18 11:00N 29°44' W 094°05'3 6.9
2018-May-18 10:30N 29°42' W 094°08'3 6.2
2018-May-18 10:00N 29°41' W 094°12'3 6.2
2018-May-18 09:30N 29°40' W 094°15'3 6.9
2018-May-18 09:00N 29°38' W 094°18'3 6.6
2018-May-18 08:30N 29°36' W 094°22'3 5.8
2018-May-18 08:00N 29°35' W 094°25'1 2.8
2018-May-18 07:30N 29°34' W 094°25'3 6.0
2018-May-18 07:00N 29°33' W 094°28'3 6.2
2018-May-18 06:30N 29°31' W 094°31'3 6.2
2018-May-18 06:00N 29°30' W 094°34'3 6.5
2018-May-18 05:30N 29°28' W 094°38'3 5.9
2018-May-18 05:00N 29°27' W 094°41'3 6.0
2018-May-18 04:30N 29°25' W 094°44'2 5.0
2018-May-18 04:00N 29°24' W 094°46'3 5.3
2018-May-18 03:30N 29°23' W 094°49'5 9.9
2018-May-18 03:00N 29°28' W 094°51'5 9.6
2018-May-18 02:30N 29°32' W 094°54'5 9.0
2018-May-18 02:00N 29°36' W 094°57'4 8.9
2018-May-18 01:30N 29°40' W 094°58'4 7.2
2018-May-18 01:00N 29°42' W 095°01'3 5.8
2018-May-18 00:29N 29°45' W 095°04'2 4.4
2018-May-18 00:01N 29°45' W 095°06'2 0.2
2018-May-17 13:40N 29°44' W 095°08'0 0.0
2018-May-17 13:30N 29°44' W 095°08'0 0.0
2018-May-17 12:56N 29°44' W 095°08'0 0.0
2018-May-17 11:40N 29°44' W 095°08'0 0.0
2018-May-17 11:30N 29°44' W 095°08'0 0.0
2018-May-17 10:55N 29°44' W 095°08'0 0.0
2018-May-17 10:21N 29°44' W 095°08'0 0.1
2018-May-17 10:01N 29°44' W 095°08'0 0.1
2018-May-17 09:26N 29°44' W 095°08'0 0.0
2018-May-17 09:00N 29°44' W 095°08'0 0.0
2018-May-17 08:29N 29°44' W 095°08'0 0.0
2018-May-17 08:00N 29°44' W 095°08'0 0.0
2018-May-17 07:27N 29°44' W 095°08'0 0.0
2018-May-17 06:59N 29°44' W 095°08'0 0.0
2018-May-17 06:15N 29°44' W 095°08'0 0.0
2018-May-17 05:57N 29°44' W 095°08'0 0.1
2018-May-17 05:30N 29°44' W 095°08'0 0.1
2018-May-17 04:35N 29°44' W 095°08'0 0.0
2018-May-17 04:22N 29°44' W 095°08'0 0.0
2018-May-17 04:00N 29°44' W 095°08'0 0.0
2018-May-17 03:31N 29°44' W 095°08'0 0.1
2018-May-17 03:00N 29°44' W 095°08'0 0.0
2018-May-17 02:30N 29°44' W 095°08'0 0.0
2018-May-17 02:00N 29°44' W 095°08'0 0.1
2018-May-17 00:22N 29°44' W 095°08'2 3.8
2018-May-16 23:56N 29°45' W 095°10'1 1.4
2018-May-16 23:27N 29°45' W 095°10'0 0.1
2018-May-16 23:00N 29°45' W 095°10'0 0.5
2018-May-16 22:30N 29°45' W 095°10'0 0.0
2018-May-16 22:00N 29°45' W 095°10'0 0.0
2018-May-16 21:28N 29°45' W 095°10'0 0.0
2018-May-16 21:00N 29°45' W 095°10'0 0.0
2018-May-16 20:30N 29°45' W 095°10'0 0.0
2018-May-16 20:00N 29°45' W 095°10'0 0.0
2018-May-16 19:30N 29°45' W 095°10'0 0.0
2018-May-16 19:01N 29°45' W 095°10'0 0.0
2018-May-16 18:31N 29°45' W 095°10'0 0.0
2018-May-16 18:00N 29°45' W 095°10'0 0.0
2018-May-16 17:30N 29°45' W 095°10'0 0.0
2018-May-16 17:00N 29°45' W 095°10'0 0.0
2018-May-16 16:31N 29°45' W 095°10'0 0.0
2018-May-16 16:01N 29°45' W 095°10'0 0.0
2018-May-16 15:28N 29°45' W 095°10'0 0.0
2018-May-16 15:00N 29°45' W 095°10'0 0.6
2018-May-16 14:30N 29°45' W 095°10'0 0.6
2018-May-16 13:59N 29°45' W 095°10'0 0.0
2018-May-16 13:30N 29°45' W 095°10'0 0.0
2018-May-16 13:00N 29°45' W 095°10'0 0.0
2018-May-16 12:31N 29°45' W 095°10'0 0.0
2018-May-16 12:00N 29°45' W 095°10'0 0.0
2018-May-16 11:30N 29°45' W 095°10'0 0.0
2018-May-16 11:00N 29°45' W 095°10'0 0.0
2018-May-16 10:31N 29°45' W 095°10'0 0.0
2018-May-16 10:00N 29°45' W 095°10'0 0.0
2018-May-16 09:31N 29°45' W 095°10'0 0.0
2018-May-16 09:01N 29°45' W 095°10'0 0.0
2018-May-16 08:30N 29°45' W 095°10'0 0.0
2018-May-16 08:00N 29°45' W 095°10'0 0.0
2018-May-16 07:30N 29°45' W 095°10'0 0.0
2018-May-16 07:00N 29°45' W 095°10'0 0.0
2018-May-16 06:30N 29°45' W 095°10'0 0.0
2018-May-16 06:01N 29°45' W 095°10'0 0.0
2018-May-16 05:31N 29°45' W 095°10'0 0.0
2018-May-16 05:00N 29°45' W 095°10'1 1.1
2018-May-16 04:30N 29°45' W 095°10'0 0.4
2018-May-16 04:00N 29°45' W 095°10'0 0.0
2018-May-16 03:31N 29°45' W 095°10'0 0.0
2018-May-16 03:01N 29°45' W 095°10'0 0.0
2018-May-16 02:30N 29°45' W 095°10'0 0.0
2018-May-16 02:00N 29°45' W 095°10'1 1.4
2018-May-16 01:30N 29°45' W 095°10'0 0.3
2018-May-16 01:00N 29°45' W 095°10'3 5.1
2018-May-16 00:25N 29°44' W 095°07'2 5.0
2018-May-15 23:57N 29°46' W 095°05'4 6.4
2018-May-15 23:21N 29°44' W 095°01'2 6.9
2018-May-15 23:01N 29°42' W 094°60'4 8.5
2018-May-15 22:31N 29°38' W 094°58'4 8.1
2018-May-15 22:00N 29°34' W 094°55'4 8.9
2018-May-15 21:30N 29°31' W 094°53'9 8.7
2018-May-15 20:26N 29°22' W 094°48'3 4.9
2018-May-15 19:47N 29°24' W 094°45'1 4.8
2018-May-15 19:30N 29°25' W 094°44'3 5.9
2018-May-15 18:59N 29°27' W 094°41'3 5.7
2018-May-15 18:29N 29°28' W 094°38'3 6.0
2018-May-15 18:00N 29°29' W 094°35'3 5.9
2018-May-15 17:30N 29°31' W 094°32'3 6.0
2018-May-15 17:01N 29°32' W 094°29'3 5.6
2018-May-15 16:30N 29°34' W 094°26'2 4.8
2018-May-15 15:59N 29°36' W 094°25'2 4.0
2018-May-15 15:29N 29°36' W 094°22'3 5.7
2018-May-15 15:01N 29°37' W 094°20'3 5.8
2018-May-15 14:29N 29°39' W 094°16'3 5.7
2018-May-15 14:01N 29°40' W 094°14'3 5.3
2018-May-15 13:31N 29°41' W 094°11'2 3.6
2018-May-15 13:01N 29°42' W 094°09'3 6.1
2018-May-15 12:30N 29°44' W 094°06'3 6.4
2018-May-15 12:00N 29°46' W 094°03'3 6.5
2018-May-15 11:30N 29°48' W 094°00'3 5.9
2018-May-15 11:01N 29°49' W 093°58'2 4.5
2018-May-15 10:31N 29°51' W 093°56'4 7.1
2018-May-15 10:01N 29°54' W 093°54'3 7.0
2018-May-15 09:31N 29°57' W 093°52'3 5.9
2018-May-15 09:00N 29°59' W 093°49'4 7.5
2018-May-15 08:31N 30°01' W 093°45'3 6.8
2018-May-15 08:01N 30°03' W 093°43'3 6.0
2018-May-15 07:31N 30°04' W 093°39'3 6.1
2018-May-15 07:01N 30°04' W 093°36'3 5.2
2018-May-15 06:31N 30°04' W 093°33'3 5.1
2018-May-15 06:01N 30°04' W 093°30'3 5.1
2018-May-15 05:30N 30°04' W 093°27'3 5.1
2018-May-15 05:00N 30°04' W 093°24'2 4.4
2018-May-15 04:30N 30°04' W 093°21'1 2.3
2018-May-15 04:01N 30°05' W 093°20'0 0.9
2018-May-15 03:31N 30°05' W 093°20'2 3.9
2018-May-15 03:00N 30°05' W 093°18'1 2.2
2018-May-15 02:31N 30°05' W 093°17'0 0.1
2018-May-15 02:00N 30°05' W 093°17'2 3.2
2018-May-15 01:31N 30°03' W 093°16'2 3.9
2018-May-15 01:01N 30°02' W 093°15'2 3.4
2018-May-15 00:31N 30°00' W 093°14'1 2.0
2018-May-15 00:01N 29°60' W 093°13'2 4.2
2018-May-14 23:31N 29°58' W 093°11'2 4.8
2018-May-14 23:01N 29°56' W 093°10'2 4.8
2018-May-14 22:31N 29°56' W 093°07'2 4.6
2018-May-14 22:01N 29°56' W 093°04'  

Dump ship's entire track history